Aeroporto :
LOGIN :

Iscrizione | Disclaimer

   EN    FR    IT 

 










Sommario :    VFR   VFR Marginale   IFR   IFR Intensivo   IFR Molto Intensivo
Visibilità : 
Base nubi : 
>= 8 km
>= 3000ft
5 / 8 km
1000 / 3000 ft
1500m / 5 km
500 / 1000 ft
800 / 1500m
200 / 500 ft
< 800m
< 200 ft
Simboli :   Temporali  Nebbia  Neve Forte  Precipitazioni Forti  Vento > 20 kt
SIGMETs :   Varie  Temporali  Ghiacco  Turbolenza  Onda orograficha  Ceneri Vulcaniche







- Altitudine del aeroporto : 313 ft
- Carte del aeroporto


LFQA - Reims-Prunay

ULTIMO METAR :
  • 242000Z AUTO 12005KT 100V160 CAVOK 09/07 Q1003

METARs OBSOLETI :
  • 241930Z AUTO 12009KT 9999 ///CB 10/08 Q1003
  • 241900Z AUTO 12007KT 9999 FEW045/// BKN250/// ///CB 11/09 Q1003
  • 241830Z AUTO 13007KT 9999 SCT030 BKN037 OVC047 13/10 Q1002
  • 241800Z AUTO 12005KT 9999 SCT034 BKN044 BKN110 14/10 Q1002

TAF N/A
Nessun NOTAM noto per questo aeroporto.
1 SIGMET conosciuto per la FIR Paris (LFFF) :
 
Turbolenza severa
LFFF SIGMET 11 VALID 242000/242300 LFPW
LFFF PARIS FIR/UIR SEV TURB FCST SE OF LINE N4715 E00430 - N4630 E00300 SFC/FL080 STNR NC=



MetMap, La meteo Aeronautica in un colpo d'occhio ! - Copyright ORBIFLY Dicembre 2007 - Disclaimer

ORBIFLY MET'MAP TEAM :

Programmazione e sviluppo : Alexandra Zaïnal
Concezione e sviluppo : Baudouin d'Aumeries
Co-Programmazione e sviluppo : Marc-Olivier Méhu
Supporto tecnico e logistico : Manuel Goepfert
Aiuto per la traduzione : Arnaldo La Scala

Contatto : metmap@orbifly.com




FONTI E CREDITI :

   NOAA